sensor_id;sensor_type;location;lat;lon;timestamp;pressure;altitude;pressure_sealevel;temperature;humidity
22335;BME280;11335;43.848;25.958;2022-08-19T00:02:37;100634.72;;;26.67;100.00
22335;BME280;11335;43.848;25.958;2022-08-19T00:05:23;100639.25;;;26.55;100.00
22335;BME280;11335;43.848;25.958;2022-08-19T00:08:09;100636.59;;;26.55;100.00
22335;BME280;11335;43.848;25.958;2022-08-19T00:10:54;100634.28;;;26.51;100.00
22335;BME280;11335;43.848;25.958;2022-08-19T00:13:40;100643.56;;;26.58;100.00
22335;BME280;11335;43.848;25.958;2022-08-19T00:16:26;100632.91;;;26.56;100.00
22335;BME280;11335;43.848;25.958;2022-08-19T00:19:13;100633.91;;;26.24;100.00
22335;BME280;11335;43.848;25.958;2022-08-19T00:21:59;100634.72;;;26.35;100.00
22335;BME280;11335;43.848;25.958;2022-08-19T00:24:44;100634.13;;;26.63;100.00
22335;BME280;11335;43.848;25.958;2022-08-19T00:27:30;100636.22;;;26.80;100.00
22335;BME280;11335;43.848;25.958;2022-08-19T00:30:16;100638.47;;;26.44;100.00
22335;BME280;11335;43.848;25.958;2022-08-19T00:33:02;100631.63;;;26.08;100.00
22335;BME280;11335;43.848;25.958;2022-08-19T00:35:48;100629.59;;;26.32;100.00
22335;BME280;11335;43.848;25.958;2022-08-19T00:38:36;100634.41;;;26.18;100.00
22335;BME280;11335;43.848;25.958;2022-08-19T00:41:24;100630.72;;;26.30;100.00
22335;BME280;11335;43.848;25.958;2022-08-19T00:44:13;100632.19;;;26.23;100.00
22335;BME280;11335;43.848;25.958;2022-08-19T00:47:00;100626.88;;;26.12;100.00
22335;BME280;11335;43.848;25.958;2022-08-19T00:49:53;100627.81;;;26.22;100.00
22335;BME280;11335;43.848;25.958;2022-08-19T00:52:42;100628.69;;;26.43;100.00
22335;BME280;11335;43.848;25.958;2022-08-19T00:55:32;100628.91;;;26.51;100.00
22335;BME280;11335;43.848;25.958;2022-08-19T00:58:21;100625.41;;;26.39;100.00
22335;BME280;11335;43.848;25.958;2022-08-19T01:01:07;100626.88;;;26.12;100.00
22335;BME280;11335;43.848;25.958;2022-08-19T01:03:53;100624.22;;;26.01;100.00
22335;BME280;11335;43.848;25.958;2022-08-19T01:06:40;100617.97;;;26.11;100.00
22335;BME280;11335;43.848;25.958;2022-08-19T01:09:26;100625.59;;;25.95;100.00
22335;BME280;11335;43.848;25.958;2022-08-19T01:12:12;100614.72;;;25.97;100.00
22335;BME280;11335;43.848;25.958;2022-08-19T01:14:59;100609.84;;;25.80;100.00
22335;BME280;11335;43.848;25.958;2022-08-19T01:17:45;100616.50;;;26.07;100.00
22335;BME280;11335;43.848;25.958;2022-08-19T01:20:32;100622.53;;;26.00;100.00
22335;BME280;11335;43.848;25.958;2022-08-19T01:23:19;100630.44;;;25.90;100.00
22335;BME280;11335;43.848;25.958;2022-08-19T01:26:04;100623.53;;;25.77;100.00
22335;BME280;11335;43.848;25.958;2022-08-19T01:28:53;100625.34;;;25.76;100.00
22335;BME280;11335;43.848;25.958;2022-08-19T01:31:40;100624.22;;;26.01;100.00
22335;BME280;11335;43.848;25.958;2022-08-19T01:34:25;100625.84;;;25.70;100.00
22335;BME280;11335;43.848;25.958;2022-08-19T01:37:12;100623.06;;;25.61;100.00
22335;BME280;11335;43.848;25.958;2022-08-19T01:39:58;100626.53;;;26.05;100.00
22335;BME280;11335;43.848;25.958;2022-08-19T01:42:44;100631.03;;;26.05;100.00
22335;BME280;11335;43.848;25.958;2022-08-19T01:45:32;100634.38;;;25.86;100.00
22335;BME280;11335;43.848;25.958;2022-08-19T01:48:18;100635.94;;;25.78;100.00
22335;BME280;11335;43.848;25.958;2022-08-19T01:51:05;100636.06;;;26.09;100.00
22335;BME280;11335;43.848;25.958;2022-08-19T01:53:51;100640.84;;;25.73;100.00
22335;BME280;11335;43.848;25.958;2022-08-19T01:56:38;100642.78;;;25.82;100.00
22335;BME280;11335;43.848;25.958;2022-08-19T01:59:24;100645.97;;;25.76;100.00
22335;BME280;11335;43.848;25.958;2022-08-19T02:02:10;100653.19;;;25.53;100.00
22335;BME280;11335;43.848;25.958;2022-08-19T02:04:56;100654.03;;;25.76;100.00
22335;BME280;11335;43.848;25.958;2022-08-19T02:07:41;100651.56;;;25.84;100.00
22335;BME280;11335;43.848;25.958;2022-08-19T02:10:27;100644.22;;;25.86;100.00
22335;BME280;11335;43.848;25.958;2022-08-19T02:13:13;100647.69;;;25.77;100.00
22335;BME280;11335;43.848;25.958;2022-08-19T02:15:59;100646.56;;;25.68;100.00
22335;BME280;11335;43.848;25.958;2022-08-19T02:18:46;100652.84;;;25.36;100.00
22335;BME280;11335;43.848;25.958;2022-08-19T02:21:34;100649.75;;;25.18;100.00
22335;BME280;11335;43.848;25.958;2022-08-19T02:24:20;100655.03;;;25.31;100.00
22335;BME280;11335;43.848;25.958;2022-08-19T02:27:05;100655.25;;;25.61;100.00
22335;BME280;11335;43.848;25.958;2022-08-19T02:29:52;100659.63;;;25.62;100.00
22335;BME280;11335;43.848;25.958;2022-08-19T02:32:38;100665.03;;;25.40;100.00
22335;BME280;11335;43.848;25.958;2022-08-19T02:35:24;100661.97;;;25.66;100.00
22335;BME280;11335;43.848;25.958;2022-08-19T02:38:10;100672.22;;;25.50;100.00
22335;BME280;11335;43.848;25.958;2022-08-19T02:41:23;100669.78;;;25.69;100.00
22335;BME280;11335;43.848;25.958;2022-08-19T02:44:09;100673.31;;;25.59;100.00
22335;BME280;11335;43.848;25.958;2022-08-19T02:46:54;100674.56;;;25.55;100.00
22335;BME280;11335;43.848;25.958;2022-08-19T02:49:41;100669.66;;;25.38;100.00
22335;BME280;11335;43.848;25.958;2022-08-19T02:52:27;100678.00;;;25.11;100.00
22335;BME280;11335;43.848;25.958;2022-08-19T02:55:13;100675.34;;;25.22;100.00
22335;BME280;11335;43.848;25.958;2022-08-19T02:57:59;100680.59;;;25.24;100.00
22335;BME280;11335;43.848;25.958;2022-08-19T03:00:48;100677.88;;;25.13;100.00
22335;BME280;11335;43.848;25.958;2022-08-19T03:03:34;100679.84;;;25.11;100.00
22335;BME280;11335;43.848;25.958;2022-08-19T03:06:20;100681.75;;;24.87;100.00
22335;BME280;11335;43.848;25.958;2022-08-19T03:09:07;100674.81;;;24.95;100.00
22335;BME280;11335;43.848;25.958;2022-08-19T03:11:53;100675.44;;;25.10;100.00
22335;BME280;11335;43.848;25.958;2022-08-19T03:14:39;100680.09;;;25.08;100.00
22335;BME280;11335;43.848;25.958;2022-08-19T03:17:24;100670.78;;;25.01;100.00
22335;BME280;11335;43.848;25.958;2022-08-19T03:20:10;100674.31;;;24.90;100.00
22335;BME280;11335;43.848;25.958;2022-08-19T03:22:56;100677.41;;;25.08;100.00
22335;BME280;11335;43.848;25.958;2022-08-19T03:25:45;100682.28;;;25.03;100.00
22335;BME280;11335;43.848;25.958;2022-08-19T03:28:32;100685.09;;;25.23;100.00
22335;BME280;11335;43.848;25.958;2022-08-19T03:31:20;100687.47;;;25.28;100.00
22335;BME280;11335;43.848;25.958;2022-08-19T03:34:09;100686.75;;;25.59;100.00
22335;BME280;11335;43.848;25.958;2022-08-19T03:36:59;100691.47;;;25.55;100.00
22335;BME280;11335;43.848;25.958;2022-08-19T03:39:46;100691.13;;;25.49;100.00
22335;BME280;11335;43.848;25.958;2022-08-19T03:42:31;100692.41;;;25.21;100.00
22335;BME280;11335;43.848;25.958;2022-08-19T03:45:17;100701.19;;;25.23;100.00
22335;BME280;11335;43.848;25.958;2022-08-19T03:48:03;100693.19;;;25.56;100.00
22335;BME280;11335;43.848;25.958;2022-08-19T03:50:49;100699.91;;;25.51;100.00
22335;BME280;11335;43.848;25.958;2022-08-19T03:53:35;100703.81;;;25.47;100.00
22335;BME280;11335;43.848;25.958;2022-08-19T03:56:22;100702.59;;;25.51;100.00
22335;BME280;11335;43.848;25.958;2022-08-19T03:59:14;100712.34;;;25.52;100.00
22335;BME280;11335;43.848;25.958;2022-08-19T04:02:05;100710.63;;;25.62;100.00
22335;BME280;11335;43.848;25.958;2022-08-19T04:04:54;100706.50;;;25.80;100.00
22335;BME280;11335;43.848;25.958;2022-08-19T04:07:40;100708.44;;;25.78;100.00
22335;BME280;11335;43.848;25.958;2022-08-19T04:10:27;100712.69;;;25.47;100.00
22335;BME280;11335;43.848;25.958;2022-08-19T04:13:17;100716.59;;;25.32;100.00
22335;BME280;11335;43.848;25.958;2022-08-19T04:16:04;100713.81;;;25.45;100.00
22335;BME280;11335;43.848;25.958;2022-08-19T04:18:50;100722.09;;;25.42;100.00
22335;BME280;11335;43.848;25.958;2022-08-19T04:21:36;100720.19;;;25.20;100.00
22335;BME280;11335;43.848;25.958;2022-08-19T04:24:22;100736.00;;;25.36;100.00
22335;BME280;11335;43.848;25.958;2022-08-19T04:27:08;100735.53;;;25.53;100.00
22335;BME280;11335;43.848;25.958;2022-08-19T04:29:54;100731.63;;;25.68;100.00
22335;BME280;11335;43.848;25.958;2022-08-19T04:32:40;100729.56;;;25.82;100.00
22335;BME280;11335;43.848;25.958;2022-08-19T04:35:38;100727.97;;;25.69;100.00
22335;BME280;11335;43.848;25.958;2022-08-19T04:38:24;100729.66;;;25.81;100.00
22335;BME280;11335;43.848;25.958;2022-08-19T04:41:09;100728.69;;;25.93;100.00
22335;BME280;11335;43.848;25.958;2022-08-19T04:44:14;100724.78;;;25.86;100.00
22335;BME280;11335;43.848;25.958;2022-08-19T04:47:03;100725.97;;;26.26;100.00
22335;BME280;11335;43.848;25.958;2022-08-19T04:49:51;100715.28;;;26.04;100.00
22335;BME280;11335;43.848;25.958;2022-08-19T04:52:38;100717.22;;;26.13;100.00
22335;BME280;11335;43.848;25.958;2022-08-19T04:55:27;100714.72;;;26.32;100.00
22335;BME280;11335;43.848;25.958;2022-08-19T04:58:13;100724.97;;;26.38;100.00
22335;BME280;11335;43.848;25.958;2022-08-19T05:00:59;100722.50;;;26.35;100.00
22335;BME280;11335;43.848;25.958;2022-08-19T05:03:48;100726.97;;;26.67;100.00
22335;BME280;11335;43.848;25.958;2022-08-19T05:06:35;100722.59;;;26.66;100.00
22335;BME280;11335;43.848;25.958;2022-08-19T05:09:21;100727.06;;;26.77;100.00
22335;BME280;11335;43.848;25.958;2022-08-19T05:12:07;100728.94;;;26.54;100.00
22335;BME280;11335;43.848;25.958;2022-08-19T05:14:53;100729.75;;;26.77;100.00
22335;BME280;11335;43.848;25.958;2022-08-19T05:17:42;100732.06;;;27.02;100.00
22335;BME280;11335;43.848;25.958;2022-08-19T05:20:47;100731.25;;;27.11;100.00
22335;BME280;11335;43.848;25.958;2022-08-19T05:23:52;100731.56;;;27.28;100.00
22335;BME280;11335;43.848;25.958;2022-08-19T05:26:43;100737.44;;;27.02;100.00
22335;BME280;11335;43.848;25.958;2022-08-19T05:29:32;100731.19;;;27.01;100.00
22335;BME280;11335;43.848;25.958;2022-08-19T05:32:19;100731.59;;;27.17;100.00
22335;BME280;11335;43.848;25.958;2022-08-19T05:35:07;100733.06;;;27.42;100.00
22335;BME280;11335;43.848;25.958;2022-08-19T05:37:53;100730.44;;;27.52;100.00
22335;BME280;11335;43.848;25.958;2022-08-19T05:40:40;100734.78;;;27.73;100.00
22335;BME280;11335;43.848;25.958;2022-08-19T05:43:25;100729.97;;;27.77;100.00
22335;BME280;11335;43.848;25.958;2022-08-19T05:46:18;100740.75;;;27.77;100.00
22335;BME280;11335;43.848;25.958;2022-08-19T05:49:07;100748.38;;;27.72;100.00
22335;BME280;11335;43.848;25.958;2022-08-19T05:51:54;100748.09;;;27.75;100.00
22335;BME280;11335;43.848;25.958;2022-08-19T05:54:41;100745.09;;;27.68;100.00
22335;BME280;11335;43.848;25.958;2022-08-19T05:57:28;100751.31;;;27.89;100.00
22335;BME280;11335;43.848;25.958;2022-08-19T06:00:14;100749.78;;;27.96;100.00
22335;BME280;11335;43.848;25.958;2022-08-19T06:03:00;100750.38;;;27.79;100.00
22335;BME280;11335;43.848;25.958;2022-08-19T06:05:48;100751.25;;;28.10;100.00
22335;BME280;11335;43.848;25.958;2022-08-19T06:08:35;100744.25;;;27.98;100.00
22335;BME280;11335;43.848;25.958;2022-08-19T06:11:31;100741.75;;;27.76;100.00
22335;BME280;11335;43.848;25.958;2022-08-19T06:14:26;100744.94;;;27.90;100.00
22335;BME280;11335;43.848;25.958;2022-08-19T06:17:12;100740.69;;;27.67;100.00
22335;BME280;11335;43.848;25.958;2022-08-19T06:19:58;100741.25;;;27.71;100.00
22335;BME280;11335;43.848;25.958;2022-08-19T06:22:46;100735.94;;;27.80;100.00
22335;BME280;11335;43.848;25.958;2022-08-19T06:25:32;100734.59;;;27.95;100.00
22335;BME280;11335;43.848;25.958;2022-08-19T06:28:18;100730.28;;;28.13;100.00
22335;BME280;11335;43.848;25.958;2022-08-19T06:31:07;100730.13;;;28.15;100.00
22335;BME280;11335;43.848;25.958;2022-08-19T06:33:53;100738.97;;;28.26;100.00
22335;BME280;11335;43.848;25.958;2022-08-19T06:36:41;100729.88;;;28.27;100.00
22335;BME280;11335;43.848;25.958;2022-08-19T06:39:38;100739.75;;;28.57;100.00
22335;BME280;11335;43.848;25.958;2022-08-19T06:42:24;100734.78;;;28.62;100.00
22335;BME280;11335;43.848;25.958;2022-08-19T06:45:10;100734.50;;;28.55;100.00
22335;BME280;11335;43.848;25.958;2022-08-19T06:47:57;100733.78;;;28.72;100.00
22335;BME280;11335;43.848;25.958;2022-08-19T06:50:43;100736.50;;;28.82;100.00
22335;BME280;11335;43.848;25.958;2022-08-19T06:53:29;100738.22;;;29.02;100.00
22335;BME280;11335;43.848;25.958;2022-08-19T06:56:17;100729.38;;;29.19;100.00
22335;BME280;11335;43.848;25.958;2022-08-19T06:59:09;100734.22;;;29.15;100.00
22335;BME280;11335;43.848;25.958;2022-08-19T07:01:56;100728.19;;;29.50;100.00
22335;BME280;11335;43.848;25.958;2022-08-19T07:04:42;100742.81;;;29.57;100.00
22335;BME280;11335;43.848;25.958;2022-08-19T07:07:31;100739.94;;;29.68;100.00
22335;BME280;11335;43.848;25.958;2022-08-19T07:10:20;100740.16;;;29.84;100.00
22335;BME280;11335;43.848;25.958;2022-08-19T07:13:06;100741.94;;;29.66;100.00
22335;BME280;11335;43.848;25.958;2022-08-19T07:15:53;100738.81;;;29.97;100.00
22335;BME280;11335;43.848;25.958;2022-08-19T07:18:39;100743.94;;;30.00;100.00
22335;BME280;11335;43.848;25.958;2022-08-19T07:21:27;100735.47;;;29.86;100.00
22335;BME280;11335;43.848;25.958;2022-08-19T07:24:16;100741.09;;;30.02;100.00
22335;BME280;11335;43.848;25.958;2022-08-19T07:27:04;100744.03;;;30.53;100.00
22335;BME280;11335;43.848;25.958;2022-08-19T07:29:50;100750.94;;;30.47;100.00
22335;BME280;11335;43.848;25.958;2022-08-19T07:32:36;100744.31;;;30.59;100.00
22335;BME280;11335;43.848;25.958;2022-08-19T07:35:22;100747.56;;;30.63;100.00
22335;BME280;11335;43.848;25.958;2022-08-19T07:38:09;100742.28;;;30.44;99.55
22335;BME280;11335;43.848;25.958;2022-08-19T07:40:55;100755.94;;;30.69;97.77
22335;BME280;11335;43.848;25.958;2022-08-19T07:43:41;100748.28;;;30.82;99.61
22335;BME280;11335;43.848;25.958;2022-08-19T07:46:30;100752.78;;;30.74;98.51
22335;BME280;11335;43.848;25.958;2022-08-19T07:49:20;100752.84;;;30.82;98.13
22335;BME280;11335;43.848;25.958;2022-08-19T07:52:08;100751.13;;;30.81;99.37
22335;BME280;11335;43.848;25.958;2022-08-19T07:54:54;100757.53;;;31.33;96.55
22335;BME280;11335;43.848;25.958;2022-08-19T07:57:40;100770.38;;;31.30;95.29
22335;BME280;11335;43.848;25.958;2022-08-19T08:00:26;100764.34;;;31.19;96.71
22335;BME280;11335;43.848;25.958;2022-08-19T08:03:19;100755.19;;;31.38;96.80
22335;BME280;11335;43.848;25.958;2022-08-19T08:06:05;100752.94;;;31.33;95.82
22335;BME280;11335;43.848;25.958;2022-08-19T08:09:11;100747.75;;;31.65;95.77
22335;BME280;11335;43.848;25.958;2022-08-19T08:12:03;100761.81;;;31.94;93.44
22335;BME280;11335;43.848;25.958;2022-08-19T08:14:53;100745.78;;;32.09;92.24
22335;BME280;11335;43.848;25.958;2022-08-19T08:17:39;100748.97;;;32.30;91.01
22335;BME280;11335;43.848;25.958;2022-08-19T08:20:25;100741.06;;;32.11;91.33
22335;BME280;11335;43.848;25.958;2022-08-19T08:23:11;100739.72;;;32.15;90.45
22335;BME280;11335;43.848;25.958;2022-08-19T08:26:13;100729.81;;;31.90;91.62
22335;BME280;11335;43.848;25.958;2022-08-19T08:29:02;100743.00;;;32.84;87.03
22335;BME280;11335;43.848;25.958;2022-08-19T08:31:49;100732.63;;;32.87;89.65
22335;BME280;11335;43.848;25.958;2022-08-19T08:34:35;100743.34;;;33.13;87.14
22335;BME280;11335;43.848;25.958;2022-08-19T08:37:22;100745.53;;;33.25;83.41
22335;BME280;11335;43.848;25.958;2022-08-19T08:43:23;100735.59;;;34.35;74.56
22335;BME280;11335;43.848;25.958;2022-08-19T08:46:17;100722.50;;;33.92;77.46
22335;BME280;11335;43.848;25.958;2022-08-19T08:52:19;100730.56;;;33.69;76.60
22335;BME280;11335;43.848;25.958;2022-08-19T08:55:10;100731.22;;;33.63;80.11
22335;BME280;11335;43.848;25.958;2022-08-19T08:58:05;100728.88;;;34.15;75.16
22335;BME280;11335;43.848;25.958;2022-08-19T09:00:52;100722.03;;;33.80;75.11
22335;BME280;11335;43.848;25.958;2022-08-19T09:03:40;100723.13;;;33.47;75.40
22335;BME280;11335;43.848;25.958;2022-08-19T09:06:36;100731.72;;;34.21;72.76
22335;BME280;11335;43.848;25.958;2022-08-19T09:09:52;100733.53;;;34.37;71.93
22335;BME280;11335;43.848;25.958;2022-08-19T09:12:52;100729.91;;;34.44;71.44
22335;BME280;11335;43.848;25.958;2022-08-19T09:15:51;100724.91;;;34.33;72.10
22335;BME280;11335;43.848;25.958;2022-08-19T09:18:45;100728.63;;;34.32;71.19
22335;BME280;11335;43.848;25.958;2022-08-19T09:21:32;100735.47;;;34.59;71.43
22335;BME280;11335;43.848;25.958;2022-08-19T09:24:19;100735.09;;;34.31;68.66
22335;BME280;11335;43.848;25.958;2022-08-19T09:27:05;100723.53;;;33.91;71.12
22335;BME280;11335;43.848;25.958;2022-08-19T09:29:52;100732.03;;;34.34;68.36
22335;BME280;11335;43.848;25.958;2022-08-19T09:32:39;100725.97;;;34.55;66.71
22335;BME280;11335;43.848;25.958;2022-08-19T09:35:29;100726.41;;;34.89;68.76
22335;BME280;11335;43.848;25.958;2022-08-19T09:38:15;100721.25;;;34.10;68.19
22335;BME280;11335;43.848;25.958;2022-08-19T09:41:03;100715.50;;;34.05;70.69
22335;BME280;11335;43.848;25.958;2022-08-19T09:43:53;100713.69;;;34.59;67.71
22335;BME280;11335;43.848;25.958;2022-08-19T09:46:41;100716.22;;;34.83;65.23
22335;BME280;11335;43.848;25.958;2022-08-19T09:49:27;100712.03;;;34.50;66.30
22335;BME280;11335;43.848;25.958;2022-08-19T09:52:13;100708.31;;;34.04;68.37
22335;BME280;11335;43.848;25.958;2022-08-19T09:55:00;100718.66;;;34.17;67.95
22335;BME280;11335;43.848;25.958;2022-08-19T09:57:46;100702.34;;;33.70;73.59
22335;BME280;11335;43.848;25.958;2022-08-19T10:00:32;100699.75;;;33.85;70.06
22335;BME280;11335;43.848;25.958;2022-08-19T10:03:18;100708.31;;;33.58;72.06
22335;BME280;11335;43.848;25.958;2022-08-19T10:06:04;100698.69;;;33.39;72.65
22335;BME280;11335;43.848;25.958;2022-08-19T10:08:52;100692.13;;;33.80;71.63
22335;BME280;11335;43.848;25.958;2022-08-19T10:11:42;100710.56;;;34.01;68.61
22335;BME280;11335;43.848;25.958;2022-08-19T10:14:28;100692.88;;;34.05;69.33
22335;BME280;11335;43.848;25.958;2022-08-19T10:17:14;100688.16;;;33.99;67.01
22335;BME280;11335;43.848;25.958;2022-08-19T10:20:00;100681.63;;;33.69;68.40
22335;BME280;11335;43.848;25.958;2022-08-19T10:22:48;100688.97;;;34.60;66.87
22335;BME280;11335;43.848;25.958;2022-08-19T10:25:34;100688.28;;;34.89;64.22
22335;BME280;11335;43.848;25.958;2022-08-19T10:28:20;100686.19;;;34.46;63.42
22335;BME280;11335;43.848;25.958;2022-08-19T10:31:11;100684.28;;;34.24;66.36
22335;BME280;11335;43.848;25.958;2022-08-19T10:33:57;100680.44;;;34.41;68.84
22335;BME280;11335;43.848;25.958;2022-08-19T10:36:43;100675.97;;;34.17;64.58
22335;BME280;11335;43.848;25.958;2022-08-19T10:39:30;100675.91;;;34.33;65.99
22335;BME280;11335;43.848;25.958;2022-08-19T10:42:17;100679.06;;;34.14;63.58
22335;BME280;11335;43.848;25.958;2022-08-19T10:45:05;100674.00;;;34.03;61.65
22335;BME280;11335;43.848;25.958;2022-08-19T10:47:54;100670.59;;;34.40;61.61
22335;BME280;11335;43.848;25.958;2022-08-19T10:50:43;100665.34;;;34.30;64.90
22335;BME280;11335;43.848;25.958;2022-08-19T10:53:48;100670.16;;;34.81;63.00
22335;BME280;11335;43.848;25.958;2022-08-19T10:56:35;100674.81;;;34.65;60.94
22335;BME280;11335;43.848;25.958;2022-08-19T10:59:40;100669.03;;;33.84;62.30
22335;BME280;11335;43.848;25.958;2022-08-19T11:02:27;100663.16;;;34.26;63.37
22335;BME280;11335;43.848;25.958;2022-08-19T11:05:13;100669.44;;;34.79;58.94
22335;BME280;11335;43.848;25.958;2022-08-19T11:08:00;100671.38;;;34.71;58.51
22335;BME280;11335;43.848;25.958;2022-08-19T11:10:52;100664.97;;;34.64;58.62
